Edgard, LA (70049)

6:45 PM CST en Noviembre 22, 2014 (GMT -0600)
Dickie's House | Change Station
CLOSE
Current Station
Estación meteorológica personal
Location: Gramercy, LA
Altura: 6 ft
Estaciones meteorológicas cercanas

Alt 6 ft 30.06 °N, 90.70 °W | Updated 1 minute ago

Nublado
Nublado
61.6 ° F
Sensación térmica 61.6 ° F
N
0.0
Viento Variable Viento desde Este

Hoy
Alta -- | Baja -- ° F
--% Posibilidad de precipitaciones
Ayer
Alta -- | Baja -- ° F
Precip. -- pul
6:33 AM 5:03 PM
Luna nueva, 0% visible
Presión 30.02 pul
Visibilidad 9.0 Millas
Nubes Baja 900 ft
Nublado 1400 ft
Punto de rocío 61 ° F
Humedad 96%
Precipitaciones 0.00 pul
Espesor de la nieve No disponible.
UV 0 de una escala de 12
Polen 2.60 de una escala de 12
Calidad del aire No disponible.
Flu Activity No disponible.
METAR KMSY 222353Z 09009KT 9SM FEW009 OVC014 17/15 A3001 RMK AO2 SLP165 T01720150 10200 20172 58019

More Conditions Fewer Conditions

Presión 30.02 pul
Visibilidad 9.0 Millas
Nubes Baja 900 ft
Nublado 1400 ft
Punto de rocío 61 ° F
Humedad 96%
Precipitaciones 0.00 pul
Espesor de la nieve No disponible.
UV 0 de una escala de 12
Polen 2.60 de una escala de 12
Calidad del aire No disponible.
Flu Activity No disponible.
METAR KMSY 222353Z 09009KT 9SM FEW009 OVC014 17/15 A3001 RMK AO2 SLP165 T01720150 10200 20172 58019

More Conditions Fewer Conditions

10-Day Weather Forecast

Almanac

Astronomía

Nov. 22, 2014 Salida Puesta
Hora real
Crepúsculo civil
Crepúsculo náutico
Crepúsculo astronómico
Luna
Horas de luz
Horas de luz
Tomorrow will be .
, % of the Moon is Illuminated

Extremos de hoy

Máximos del estado Bajos del estado

Community

WunderPhotos

Upload Photos

1,772,938 ¡fotos cargadas!

WunderBlogs® & News

Nearby

Calidad del aire

  Calidad del aire Índice AQ Contaminante
Not available.

Grosos de nieve

Estación Profundido Altura

Actividad de terremotos

Ciudad Distance Mag. Tiempo y dato
Magnitud mínima muestra es 2,5.

Temperaturas de aguas costeras

Lugar Temperatura

Estaciones meteorológicas cercanas